Fairview Cross Roads, North Carolina
Current Conditions -  °F | °C
As of 6:15 AM on Thursday 23 Oct 2014 (Local Time) from KMWK Reporting Station
Clear Clear  
Wind Chill: 50°   Ceiling: Unl
Heat Index: 50°   Visibility: 10mi
Dew Point: 39°   Wind: 9mph
Humidity: 66%   Direction: 340°NNW
Pressure: 30.07"   Gusts: 20mph
Location:  36.3461°N, 80.7011°W
Report Text: KMWK 231015Z AUTO 34008G17KT 290V360 10SM CLR 10/04 A3007 RMK AO2 T01000040
Loading
Personal Weather Stations






























Interactive Weather Map
Tropical Storm Tracking
New forecast layout! Learn more

10-Day Weather Forecast

Advertisements
Track Severe Weather on mobile